Time;durP1;ratioP1;P1;durP2;ratioP2;P2;SDS_P1;SDS_P2;PMS_P1;PMS_P2;Temp;Humidity;BMP_temperature;BMP_pressure;BME280_temperature;BME280_humidity;BME280_pressure;Samples;Min_cycle;Max_cycle;Signal;HPM_P1;HPM_P2
2022/09/23 00:00:03;;;;;;;15.57;13.45;;;9.90;99.90;;;;;;4975690;28;20047;-75
2022/09/23 00:02:29;;;;;;;15.35;13.13;;;9.90;99.90;;;;;;4983304;28;20458;-74
2022/09/23 00:04:54;;;;;;;14.40;12.90;;;9.90;99.90;;;;;;4980049;28;20042;-75
2022/09/23 00:07:20;;;;;;;16.00;12.95;;;9.90;99.90;;;;;;4989834;28;20094;-75
2022/09/23 00:09:46;;;;;;;15.55;13.43;;;9.90;99.90;;;;;;4977747;28;20086;-75
2022/09/23 00:12:11;;;;;;;14.68;13.02;;;9.90;99.90;;;;;;4972613;28;20064;-75
2022/09/23 00:14:38;;;;;;;16.35;13.68;;;9.90;99.90;;;;;;4992051;28;20193;-74
2022/09/23 00:17:04;;;;;;;14.20;12.80;;;9.90;99.90;;;;;;4988744;28;20047;-73
2022/09/23 00:19:29;;;;;;;14.40;12.90;;;9.90;99.90;;;;;;4983897;28;20050;-74
2022/09/23 00:21:55;;;;;;;23.98;13.23;;;9.90;99.90;;;;;;4987988;28;20507;-75
2022/09/23 00:24:22;;;;;;;15.45;13.85;;;9.90;99.90;;;;;;5007561;28;20062;-75
2022/09/23 00:26:48;;;;;;;14.77;12.88;;;9.90;99.90;;;;;;4977113;28;20606;-74
2022/09/23 00:29:14;;;;;;;19.83;14.20;;;9.90;99.90;;;;;;4985660;28;20046;-74
2022/09/23 00:31:41;;;;;;;17.35;13.57;;;9.80;99.90;;;;;;4975783;28;20046;-75
2022/09/23 00:34:09;;;;;;;14.55;13.05;;;9.80;99.90;;;;;;4962969;28;20050;-75
2022/09/23 00:36:35;;;;;;;15.32;13.23;;;9.80;99.90;;;;;;4990636;28;20046;-75
2022/09/23 00:39:02;;;;;;;15.82;13.95;;;9.80;99.90;;;;;;4982937;28;20178;-75
2022/09/23 00:41:28;;;;;;;14.35;12.90;;;9.80;99.90;;;;;;4986301;28;20140;-75
2022/09/23 00:43:57;;;;;;;14.75;13.23;;;9.80;99.90;;;;;;4969666;28;20129;-73
2022/09/23 00:46:35;;;;;;;15.20;13.45;;;9.80;99.90;;;;;;4988283;28;20514;-75
2022/09/23 00:49:12;;;;;;;16.85;13.50;;;9.80;99.90;;;;;;4982542;28;20046;-75
2022/09/23 00:51:47;;;;;;;15.80;13.30;;;9.80;99.90;;;;;;4985330;28;20129;-75
2022/09/23 00:54:13;;;;;;;17.70;13.57;;;9.80;99.90;;;;;;4981175;28;20069;-75
2022/09/23 00:56:39;;;;;;;15.95;13.48;;;9.70;99.90;;;;;;4974069;28;20110;-75
2022/09/23 00:59:06;;;;;;;19.02;12.63;;;9.70;99.90;;;;;;4975379;28;20057;-75
2022/09/23 01:01:32;;;;;;;15.57;13.90;;;9.70;99.90;;;;;;4987426;28;20042;-74
2022/09/23 01:03:58;;;;;;;15.00;13.50;;;9.70;99.90;;;;;;4987110;28;20054;-75
2022/09/23 01:06:24;;;;;;;16.88;13.40;;;9.70;99.90;;;;;;4989784;28;20128;-75
2022/09/23 01:08:50;;;;;;;15.23;12.70;;;9.70;99.90;;;;;;4984961;28;20491;-75
2022/09/23 01:11:47;;;;;;;14.82;13.43;;;9.60;99.90;;;;;;4967823;28;20074;-75
2022/09/23 01:14:39;;;;;;;15.02;13.55;;;9.60;99.90;;;;;;4978007;28;20058;-75
2022/09/23 01:17:12;;;;;;;14.35;12.88;;;9.60;99.90;;;;;;4980594;28;20056;-74
2022/09/23 01:20:12;;;;;;;11.50;10.30;;;9.60;99.90;;;;;;4981407;28;20054;-72
2022/09/23 01:22:49;;;;;;;10.43;9.27;;;9.50;99.90;;;;;;4984600;28;20047;-75
2022/09/23 01:26:00;;;;;;;10.38;9.48;;;9.40;99.90;;;;;;4972601;28;20042;-73
2022/09/23 01:29:03;;;;;;;11.13;10.13;;;9.40;99.90;;;;;;4895113;29;20076;-74
2022/09/23 01:31:37;;;;;;;13.55;11.60;;;9.30;99.90;;;;;;4990595;28;20038;-74
2022/09/23 01:34:23;;;;;;;13.15;11.80;;;9.30;99.90;;;;;;4975624;28;20558;-73
2022/09/23 01:37:09;;;;;;;16.23;12.23;;;9.30;99.90;;;;;;4984710;28;20561;-73
2022/09/23 01:39:40;;;;;;;13.18;11.88;;;9.30;99.90;;;;;;4982310;28;20055;-74
2022/09/23 01:42:09;;;;;;;12.98;11.68;;;9.20;99.90;;;;;;4978678;28;20101;-73
2022/09/23 01:44:55;;;;;;;15.93;12.98;;;9.30;99.90;;;;;;4987677;28;20414;-74
2022/09/23 01:47:29;;;;;;;16.40;13.52;;;9.20;99.90;;;;;;4985505;28;20038;-73
2022/09/23 01:50:55;;;;;;;16.48;14.45;;;9.30;99.90;;;;;;4987872;28;20510;-73
2022/09/23 01:53:03;;;;;;;17.35;15.52;;;9.20;99.90;;;;;;4978442;28;20039;-74
2022/09/23 01:55:32;;;;;;;15.50;13.93;;;9.20;99.90;;;;;;4990364;28;20091;-73
2022/09/23 01:58:22;;;;;;;14.10;12.68;;;9.20;99.90;;;;;;4983579;28;20042;-74
2022/09/23 02:00:59;;;;;;;13.30;11.25;;;9.20;99.90;;;;;;4985252;28;20053;-73
2022/09/23 02:03:50;;;;;;;15.05;12.75;;;9.20;99.90;;;;;;4981624;28;20058;-74
2022/09/23 02:06:24;;;;;;;14.57;13.07;;;9.20;99.90;;;;;;4985711;28;20058;-74
2022/09/23 02:08:56;;;;;;;14.95;13.05;;;9.10;99.90;;;;;;4984195;28;20499;-73
2022/09/23 02:11:22;;;;;;;;;;;9.10;99.90;;;;;;4983008;28;20105;-73
2022/09/23 02:13:57;;;;;;;14.48;12.63;;;9.10;99.90;;;;;;4985424;28;19921;-76
2022/09/23 02:16:28;;;;;;;14.77;13.15;;;9.10;99.90;;;;;;4982908;28;20050;-75
2022/09/23 02:19:21;;;;;;;13.05;11.45;;;9.10;99.90;;;;;;4986330;28;20427;-75
2022/09/23 02:21:57;;;;;;;12.50;11.20;;;9.00;99.90;;;;;;4983173;28;20050;-75
2022/09/23 02:24:30;;;;;;;12.05;10.95;;;9.00;99.90;;;;;;4979637;28;20511;-75
2022/09/23 02:27:17;;;;;;;13.63;12.27;;;9.00;99.90;;;;;;4989296;28;20089;-75
2022/09/23 02:29:54;;;;;;;14.68;13.20;;;8.90;99.90;;;;;;4987035;28;20046;-74
2022/09/23 02:32:35;;;;;;;16.23;12.98;;;8.90;99.90;;;;;;4990112;28;20042;-75
2022/09/23 02:35:31;;;;;;;13.98;12.10;;;8.90;99.90;;;;;;4985410;28;20050;-75
2022/09/23 02:38:22;;;;;;;16.10;13.20;;;8.90;99.90;;;;;;4980211;28;20050;-74
2022/09/23 02:41:07;;;;;;;16.65;13.57;;;8.90;99.90;;;;;;4988386;28;20406;-75
2022/09/23 02:43:45;;;;;;;17.52;14.55;;;8.90;99.90;;;;;;4974786;28;20415;-75
2022/09/23 02:46:10;;;;;;;16.65;14.90;;;8.80;99.90;;;;;;4989058;28;20046;-75
2022/09/23 02:48:46;;;;;;;16.85;15.25;;;8.80;99.90;;;;;;4987831;28;20112;-75
2022/09/23 02:51:12;;;;;;;15.75;14.15;;;8.80;99.90;;;;;;4989246;28;20050;-74
2022/09/23 02:53:38;;;;;;;17.85;16.15;;;8.80;99.90;;;;;;4972328;28;20093;-75
2022/09/23 02:56:19;;;;;;;17.73;16.02;;;8.80;99.90;;;;;;4983029;28;20053;-75
2022/09/23 02:58:51;;;;;;;20.05;16.83;;;8.80;99.90;;;;;;4983809;28;20043;-75
2022/09/23 03:01:51;;;;;;;17.38;15.63;;;8.80;99.90;;;;;;4988961;28;20062;-73
2022/09/23 03:04:41;;;;;;;22.17;16.05;;;8.70;99.90;;;;;;4985619;28;20101;-73
2022/09/23 03:07:15;;;;;;;17.73;15.95;;;8.70;99.90;;;;;;4965643;28;20137;-73
2022/09/23 03:10:06;;;;;;;18.08;15.43;;;8.70;99.90;;;;;;4988419;28;20054;-73
2022/09/23 03:12:41;;;;;;;17.10;15.45;;;8.70;99.90;;;;;;4981268;28;20075;-72
2022/09/23 03:15:22;;;;;;;17.80;15.50;;;8.70;99.90;;;;;;4963816;28;20057;-73
2022/09/23 03:18:09;;;;;;;16.88;15.13;;;8.70;99.90;;;;;;4983831;28;20141;-73
2022/09/23 03:20:48;;;;;;;16.58;14.77;;;8.60;99.90;;;;;;4978258;28;20498;-74
2022/09/23 03:23:18;;;;;;;19.30;14.75;;;8.60;99.90;;;;;;4979900;28;20038;-73
2022/09/23 03:25:47;;;;;;;17.15;15.35;;;8.60;99.90;;;;;;4990278;28;20042;-75
2022/09/23 03:28:16;;;;;;;16.35;14.65;;;8.60;99.90;;;;;;4986965;28;20069;-73
2022/09/23 03:30:42;;;;;;;17.13;15.38;;;8.60;99.90;;;;;;4981253;28;20073;-73
2022/09/23 03:33:11;;;;;;;18.25;15.88;;;8.50;99.90;;;;;;4986663;28;20445;-73
2022/09/23 03:38:36;;;;;;;18.20;16.13;;;8.50;99.90;;;;;;4987786;28;20050;-74
2022/09/23 03:41:03;;;;;;;20.42;16.05;;;8.50;99.90;;;;;;4974575;28;20047;-75
2022/09/23 03:43:30;;;;;;;18.83;16.88;;;8.50;99.90;;;;;;4981951;28;20046;-74
2022/09/23 03:45:57;;;;;;;19.92;17.15;;;8.50;99.90;;;;;;4969835;28;20057;-72
2022/09/23 03:48:26;;;;;;;18.52;16.75;;;8.40;99.90;;;;;;4989203;28;20046;-74
2022/09/23 03:50:51;;;;;;;24.00;16.88;;;8.50;99.90;;;;;;4986107;28;20039;-75
2022/09/23 03:53:19;;;;;;;17.67;15.85;;;8.40;99.90;;;;;;5000438;28;20116;-74
2022/09/23 03:55:46;;;;;;;18.40;16.63;;;8.40;99.90;;;;;;4987364;28;20041;-74
2022/09/23 03:58:12;;;;;;;17.98;16.13;;;8.40;99.90;;;;;;4990519;28;20523;-75
2022/09/23 04:00:38;;;;;;;18.10;16.45;;;8.40;99.90;;;;;;4986507;28;20045;-74
2022/09/23 04:03:04;;;;;;;17.13;15.48;;;8.40;99.90;;;;;;4986069;28;20495;-74
2022/09/23 04:05:29;;;;;;;20.02;16.17;;;8.40;99.90;;;;;;4993023;28;20092;-74
2022/09/23 04:07:55;;;;;;;17.92;16.13;;;8.40;99.90;;;;;;4991720;28;20078;-75
2022/09/23 04:10:21;;;;;;;17.63;15.90;;;8.40;99.90;;;;;;4984499;28;20047;-74
2022/09/23 04:12:47;;;;;;;18.33;16.40;;;8.40;99.90;;;;;;4989831;28;20043;-75
2022/09/23 04:15:12;;;;;;;17.52;15.05;;;8.40;99.90;;;;;;4981858;28;20069;-75
2022/09/23 04:17:38;;;;;;;17.13;15.38;;;8.40;99.90;;;;;;4985233;28;20038;-75
2022/09/23 04:20:04;;;;;;;21.02;16.15;;;8.40;99.90;;;;;;4990952;28;20411;-75
2022/09/23 04:22:32;;;;;;;17.60;15.80;;;8.40;99.90;;;;;;4989716;28;20053;-74
2022/09/23 04:24:57;;;;;;;18.50;16.60;;;8.40;99.90;;;;;;4987017;28;20046;-75
2022/09/23 04:27:23;;;;;;;17.65;15.80;;;8.40;99.90;;;;;;4984268;28;20105;-75
2022/09/23 04:29:49;;;;;;;17.00;15.20;;;8.40;99.90;;;;;;4989422;28;20041;-75
2022/09/23 04:32:14;;;;;;;18.40;16.33;;;8.40;99.90;;;;;;4972321;28;20474;-75
2022/09/23 04:34:40;;;;;;;18.08;15.95;;;8.40;99.90;;;;;;4983544;28;20170;-74
2022/09/23 04:37:05;;;;;;;17.20;15.60;;;8.40;99.90;;;;;;4991333;28;20058;-75
2022/09/23 04:39:31;;;;;;;19.02;17.17;;;8.40;99.90;;;;;;4987888;28;20069;-75
2022/09/23 04:41:57;;;;;;;18.80;16.75;;;8.40;99.90;;;;;;4991584;28;20109;-75
2022/09/23 04:44:22;;;;;;;18.58;16.67;;;8.40;99.90;;;;;;4987578;28;20054;-75
2022/09/23 04:46:48;;;;;;;17.67;15.88;;;8.40;99.90;;;;;;4990618;28;20045;-74
2022/09/23 04:49:15;;;;;;;19.27;16.90;;;8.40;99.90;;;;;;4979580;28;20051;-75
2022/09/23 04:51:42;;;;;;;19.98;17.17;;;8.40;99.90;;;;;;4987411;28;20116;-74
2022/09/23 04:54:11;;;;;;;20.40;17.10;;;8.40;99.90;;;;;;4964933;28;20046;-75
2022/09/23 04:56:38;;;;;;;20.30;16.90;;;8.40;99.90;;;;;;4988711;28;20061;-75
2022/09/23 04:59:04;;;;;;;19.40;16.83;;;8.40;99.90;;;;;;4991502;28;20503;-75
2022/09/23 05:01:33;;;;;;;18.67;16.83;;;8.40;99.90;;;;;;4987660;28;20045;-75
2022/09/23 05:04:01;;;;;;;18.38;16.40;;;8.50;99.90;;;;;;4985767;28;20779;-75
2022/09/23 05:06:28;;;;;;;19.48;17.58;;;8.40;99.90;;;;;;4984975;28;20149;-74
2022/09/23 05:08:55;;;;;;;19.85;17.42;;;8.40;99.90;;;;;;4971242;28;20061;-75
2022/09/23 05:11:21;;;;;;;18.80;16.90;;;8.40;99.90;;;;;;4983543;28;20137;-74
2022/09/23 05:13:49;;;;;;;20.10;16.98;;;8.40;99.90;;;;;;4986784;28;20042;-75
2022/09/23 05:16:15;;;;;;;18.15;16.25;;;8.40;99.90;;;;;;4984963;28;20506;-75
2022/09/23 05:18:42;;;;;;;18.42;16.65;;;8.40;99.90;;;;;;4986666;28;20065;-74
2022/09/23 05:21:14;;;;;;;18.38;16.15;;;8.40;99.90;;;;;;4985793;28;20112;-75
2022/09/23 05:23:40;;;;;;;21.35;16.85;;;8.40;99.90;;;;;;4975515;28;20062;-73
2022/09/23 05:26:09;;;;;;;17.58;15.77;;;8.30;99.90;;;;;;4980432;28;20042;-75
2022/09/23 05:28:36;;;;;;;18.23;16.42;;;8.30;99.90;;;;;;4972348;28;20384;-74
2022/09/23 05:31:15;;;;;;;18.27;15.85;;;8.30;99.90;;;;;;4985357;28;20054;-74
2022/09/23 05:33:44;;;;;;;18.92;17.08;;;8.30;99.90;;;;;;4964218;28;20050;-74
2022/09/23 05:36:10;;;;;;;18.23;16.48;;;8.30;99.90;;;;;;4972988;28;20061;-73
2022/09/23 05:38:36;;;;;;;19.77;15.70;;;8.30;99.90;;;;;;4984699;28;20054;-73
2022/09/23 05:41:06;;;;;;;19.33;15.40;;;8.30;99.90;;;;;;4989299;28;20051;-74
2022/09/23 05:43:33;;;;;;;16.83;14.95;;;8.30;99.90;;;;;;4981658;28;20062;-74
2022/09/23 05:46:03;;;;;;;16.90;15.18;;;8.30;99.90;;;;;;4988753;28;20152;-73
2022/09/23 05:48:31;;;;;;;16.90;15.18;;;8.40;99.90;;;;;;4983431;28;20129;-74
2022/09/23 05:50:58;;;;;;;17.77;16.05;;;8.40;99.90;;;;;;4987761;28;20132;-74
2022/09/23 05:53:25;;;;;;;18.10;16.17;;;8.40;99.90;;;;;;4988491;28;20094;-75
2022/09/23 05:55:53;;;;;;;18.27;16.02;;;8.30;99.90;;;;;;4965104;28;20492;-74
2022/09/23 05:58:19;;;;;;;17.77;16.08;;;8.40;99.90;;;;;;4987373;28;20513;-73
2022/09/23 06:00:48;;;;;;;17.75;15.77;;;8.40;99.90;;;;;;4983521;28;20499;-73
2022/09/23 06:03:15;;;;;;;16.95;15.30;;;8.40;99.90;;;;;;4981975;28;20050;-75
2022/09/23 06:05:41;;;;;;;16.58;14.90;;;8.40;99.90;;;;;;4985186;28;20177;-73
2022/09/23 06:08:08;;;;;;;20.88;16.38;;;8.50;99.90;;;;;;4983045;28;20566;-75
2022/09/23 06:10:43;;;;;;;17.02;15.23;;;8.50;99.90;;;;;;4977898;28;20074;-74
2022/09/23 06:13:09;;;;;;;17.27;15.50;;;8.50;99.90;;;;;;4987735;28;20070;-74
2022/09/23 06:15:35;;;;;;;18.55;16.65;;;8.60;99.90;;;;;;4983473;28;20035;-73
2022/09/23 06:18:01;;;;;;;21.17;15.57;;;8.70;99.90;;;;;;4959067;28;20038;-74
2022/09/23 06:20:27;;;;;;;17.63;15.82;;;8.70;99.90;;;;;;4986204;28;20053;-74
2022/09/23 06:22:53;;;;;;;19.40;15.73;;;8.70;99.90;;;;;;4966402;28;20039;-75
2022/09/23 06:25:21;;;;;;;18.77;15.25;;;8.80;99.90;;;;;;4984168;28;20178;-75
2022/09/23 06:27:56;;;;;;;18.52;16.50;;;8.80;99.90;;;;;;4982978;28;20042;-75
2022/09/23 06:30:22;;;;;;;18.05;16.05;;;8.90;99.90;;;;;;4979654;28;20042;-75
2022/09/23 06:32:52;;;;;;;18.67;16.70;;;9.00;99.90;;;;;;4981609;28;20054;-75
2022/09/23 06:35:20;;;;;;;18.48;16.67;;;9.10;99.90;;;;;;4981169;28;20050;-75
2022/09/23 06:37:46;;;;;;;18.20;16.20;;;9.20;99.90;;;;;;4966081;28;20038;-74
2022/09/23 06:40:13;;;;;;;20.23;15.50;;;9.30;99.90;;;;;;4999664;28;20089;-74
2022/09/23 06:42:40;;;;;;;16.73;15.13;;;9.40;99.90;;;;;;4983248;28;20054;-73
2022/09/23 06:45:10;;;;;;;18.73;15.77;;;9.50;99.90;;;;;;4977202;28;20043;-75
2022/09/23 06:47:36;;;;;;;17.15;15.32;;;9.50;99.90;;;;;;4979609;28;20687;-75
2022/09/23 06:50:03;;;;;;;17.30;15.50;;;9.60;99.90;;;;;;5003019;28;20054;-74
2022/09/23 06:52:29;;;;;;;16.27;13.98;;;9.70;99.90;;;;;;4956980;28;20062;-74
2022/09/23 06:54:55;;;;;;;17.35;15.55;;;9.70;99.90;;;;;;4974634;28;20074;-75
2022/09/23 06:57:21;;;;;;;16.33;14.55;;;9.80;99.90;;;;;;4973894;28;20129;-75
2022/09/23 06:59:46;;;;;;;16.25;14.32;;;9.80;99.90;;;;;;4967516;28;20089;-75
2022/09/23 07:02:13;;;;;;;14.48;12.68;;;9.90;99.90;;;;;;4979920;28;20093;-75
2022/09/23 07:04:40;;;;;;;16.05;14.18;;;9.90;99.90;;;;;;4983756;28;20053;-75
2022/09/23 07:07:05;;;;;;;15.65;14.00;;;10.00;99.90;;;;;;4984920;28;20038;-75
2022/09/23 07:09:31;;;;;;;17.45;13.45;;;10.10;99.90;;;;;;4984943;28;20042;-73
2022/09/23 07:11:57;;;;;;;14.60;13.10;;;10.10;99.90;;;;;;4995562;28;20068;-76
2022/09/23 07:14:23;;;;;;;15.07;12.88;;;10.20;99.90;;;;;;4970049;28;20038;-76
2022/09/23 07:16:49;;;;;;;16.83;13.07;;;10.20;99.90;;;;;;4984074;28;20039;-73
2022/09/23 07:19:16;;;;;;;14.30;12.75;;;10.30;99.90;;;;;;4994561;28;20046;-73
2022/09/23 07:21:41;;;;;;;14.07;11.90;;;10.30;99.90;;;;;;4988147;28;20057;-75
2022/09/23 07:24:07;;;;;;;13.48;12.20;;;10.40;99.90;;;;;;4983630;28;20104;-73
2022/09/23 07:26:33;;;;;;;13.50;12.23;;;10.50;99.90;;;;;;4991984;28;20039;-75
2022/09/23 07:29:03;;;;;;;15.68;13.07;;;10.50;99.90;;;;;;4986341;28;20129;-75
2022/09/23 07:31:31;;;;;;;14.77;12.65;;;10.60;99.90;;;;;;4991304;28;20093;-76
2022/09/23 07:33:57;;;;;;;15.25;12.00;;;10.70;99.90;;;;;;4990712;28;20061;-74
2022/09/23 07:36:23;;;;;;;15.50;12.05;;;10.80;99.90;;;;;;4994323;28;20057;-74
2022/09/23 07:38:50;;;;;;;14.07;12.73;;;10.80;99.90;;;;;;4993699;28;20049;-74
2022/09/23 07:41:17;;;;;;;16.85;12.73;;;10.90;99.90;;;;;;4990893;28;20046;-74
2022/09/23 07:43:44;;;;;;;14.23;12.48;;;11.00;99.90;;;;;;4989863;28;20050;-74
2022/09/23 07:46:16;;;;;;;14.20;12.18;;;11.10;99.90;;;;;;4991175;28;20489;-74
2022/09/23 07:48:42;;;;;;;14.73;12.23;;;11.20;99.90;;;;;;4984421;28;20070;-73
2022/09/23 07:51:16;;;;;;;15.93;11.95;;;11.20;99.90;;;;;;4983958;28;20120;-74
2022/09/23 07:53:46;;;;;;;13.38;10.60;;;11.30;99.90;;;;;;4987777;28;20089;-74
2022/09/23 07:56:11;;;;;;;12.07;10.82;;;11.40;99.90;;;;;;4986110;28;20541;-74
2022/09/23 07:58:37;;;;;;;16.67;11.80;;;11.40;99.90;;;;;;4988468;28;20038;-75
2022/09/23 08:01:10;;;;;;;16.42;12.00;;;11.50;99.90;;;;;;4987331;28;20542;-74
2022/09/23 08:03:37;;;;;;;14.18;10.38;;;11.60;99.90;;;;;;4976561;28;20100;-74
2022/09/23 08:06:09;;;;;;;14.75;10.90;;;11.60;99.90;;;;;;4990193;28;20046;-75
2022/09/23 08:08:38;;;;;;;11.57;10.23;;;11.70;99.90;;;;;;4988724;28;20042;-75
2022/09/23 08:11:06;;;;;;;15.38;10.45;;;11.80;99.90;;;;;;4984956;28;20043;-74
2022/09/23 08:13:32;;;;;;;13.60;10.65;;;11.80;99.90;;;;;;4986003;28;20065;-75
2022/09/23 08:15:58;;;;;;;12.43;10.77;;;12.00;99.90;;;;;;4988157;28;20129;-75
2022/09/23 08:18:24;;;;;;;12.73;10.02;;;12.00;99.90;;;;;;4991133;28;20129;-74
2022/09/23 08:20:50;;;;;;;11.35;10.25;;;12.00;99.90;;;;;;4986977;28;20041;-74
2022/09/23 08:23:17;;;;;;;12.82;10.05;;;12.10;99.90;;;;;;4988085;28;20043;-73
2022/09/23 08:25:46;;;;;;;12.75;10.48;;;12.20;99.90;;;;;;4981236;28;20046;-74
2022/09/23 08:28:17;;;;;;;11.95;10.55;;;12.20;99.90;;;;;;4980359;28;20042;-74
2022/09/23 08:30:44;;;;;;;11.10;9.68;;;12.30;99.90;;;;;;4981725;28;20050;-74
2022/09/23 08:33:11;;;;;;;13.30;10.90;;;12.30;99.90;;;;;;4987264;28;20062;-74
2022/09/23 08:35:36;;;;;;;16.50;10.73;;;12.40;99.90;;;;;;4988280;28;20430;-74
2022/09/23 08:38:02;;;;;;;13.13;10.65;;;12.50;99.90;;;;;;4988860;28;20058;-75
2022/09/23 08:40:29;;;;;;;12.18;9.98;;;12.50;99.90;;;;;;4982162;28;20133;-74
2022/09/23 08:42:55;;;;;;;13.48;9.90;;;12.60;99.90;;;;;;4974453;28;20464;-74
2022/09/23 08:45:25;;;;;;;13.57;10.07;;;12.70;99.90;;;;;;4984336;28;20046;-74
2022/09/23 08:47:57;;;;;;;11.55;9.68;;;12.70;99.90;;;;;;4986000;28;20077;-75
2022/09/23 08:50:27;;;;;;;11.48;10.20;;;12.90;99.90;;;;;;4983895;28;20046;-76
2022/09/23 08:53:12;;;;;;;13.82;10.35;;;12.90;99.90;;;;;;4979111;28;20046;-74
2022/09/23 08:55:45;;;;;;;12.80;10.30;;;13.10;99.90;;;;;;4982923;28;20045;-74
2022/09/23 08:58:27;;;;;;;10.80;9.63;;;13.10;99.90;;;;;;4981748;28;20051;-75
2022/09/23 09:01:15;;;;;;;16.90;10.02;;;13.20;99.90;;;;;;4971801;28;20113;-75
2022/09/23 09:04:00;;;;;;;14.15;9.68;;;13.40;99.90;;;;;;4971837;28;20058;-75
2022/09/23 09:06:40;;;;;;;12.30;10.20;;;13.50;99.90;;;;;;4980058;28;20042;-74
2022/09/23 09:09:22;;;;;;;14.75;9.73;;;13.60;99.90;;;;;;4984132;28;20045;-75
2022/09/23 09:11:51;;;;;;;12.85;9.27;;;13.60;99.90;;;;;;4982335;28;20038;-74
2022/09/23 09:14:39;;;;;;;13.13;9.35;;;13.60;99.90;;;;;;4974504;28;20066;-74
2022/09/23 09:17:11;;;;;;;10.68;9.30;;;13.70;99.90;;;;;;4980175;28;20046;-76
2022/09/23 09:20:00;;;;;;;11.77;10.05;;;13.80;99.90;;;;;;4980231;28;20105;-77
2022/09/23 09:22:47;;;;;;;11.52;9.32;;;13.90;99.90;;;;;;5002384;28;20442;-75
2022/09/23 09:25:36;;;;;;;10.85;8.85;;;14.10;99.90;;;;;;4971209;28;20047;-75
2022/09/23 09:28:29;;;;;;;10.80;9.18;;;14.20;99.90;;;;;;4983450;28;20042;-76
2022/09/23 09:31:04;;;;;;;;;;;14.40;99.90;;;;;;4952594;28;20039;-76
2022/09/23 09:33:45;;;;;;;9.90;8.82;;;14.50;99.90;;;;;;5002048;28;19918;-76
2022/09/23 09:36:34;;;;;;;12.02;9.50;;;14.60;99.90;;;;;;4977175;28;20137;-75
2022/09/23 09:39:01;;;;;;;10.80;8.88;;;14.60;99.90;;;;;;4987200;28;20065;-75
2022/09/23 09:41:30;;;;;;;11.80;8.85;;;14.70;99.90;;;;;;4984148;28;20050;-75
2022/09/23 09:43:58;;;;;;;12.05;8.77;;;14.90;99.90;;;;;;4987395;28;20050;-75
2022/09/23 09:46:24;;;;;;;10.13;8.57;;;15.00;99.90;;;;;;4982939;28;20035;-76
2022/09/23 09:48:58;;;;;;;12.95;8.68;;;15.10;99.90;;;;;;4983044;28;20480;-74
2022/09/23 09:51:26;;;;;;;10.02;8.57;;;15.20;99.90;;;;;;4963271;28;20098;-74
2022/09/23 09:53:54;;;;;;;9.68;8.35;;;15.20;99.90;;;;;;4985418;28;20260;-76
2022/09/23 09:56:32;;;;;;;14.68;8.65;;;15.30;99.90;;;;;;4976008;28;20050;-74
2022/09/23 09:59:00;;;;;;;15.38;9.02;;;15.40;99.90;;;;;;4983749;28;20069;-74
2022/09/23 10:01:31;;;;;;;11.95;8.20;;;15.40;99.90;;;;;;4980324;28;20069;-74
2022/09/23 10:04:04;;;;;;;17.02;8.50;;;15.40;99.90;;;;;;4979368;28;20408;-74
2022/09/23 10:06:32;;;;;;;11.18;8.00;;;15.40;99.90;;;;;;4973595;28;20189;-74
2022/09/23 10:09:12;;;;;;;13.13;8.70;;;15.40;99.90;;;;;;4973441;28;20046;-76
2022/09/23 10:11:39;;;;;;;14.68;7.75;;;15.40;99.90;;;;;;4982014;28;20042;-74
2022/09/23 10:14:16;;;;;;;10.55;7.50;;;15.40;99.90;;;;;;4981028;28;20085;-74
2022/09/23 10:16:43;;;;;;;16.42;8.43;;;15.30;99.90;;;;;;4985450;28;20042;-74
2022/09/23 10:19:24;;;;;;;11.07;8.65;;;15.30;99.90;;;;;;4984836;28;20046;-74
2022/09/23 10:21:55;;;;;;;10.32;8.32;;;15.30;99.90;;;;;;4986617;28;20058;-76
2022/09/23 10:24:24;;;;;;;9.98;8.27;;;15.30;99.90;;;;;;4976854;28;20054;-75
2022/09/23 10:27:10;;;;;;;11.38;8.23;;;15.30;99.90;;;;;;4975688;28;20080;-75
2022/09/23 10:29:37;;;;;;;11.90;8.65;;;15.30;99.90;;;;;;4979770;28;20049;-75
2022/09/23 10:32:25;;;;;;;10.10;7.93;;;15.30;99.90;;;;;;4979227;28;20050;-74
2022/09/23 10:35:13;;;;;;;9.90;8.18;;;15.30;99.90;;;;;;4973954;28;20100;-74
2022/09/23 10:37:40;;;;;;;10.73;8.80;;;15.30;99.90;;;;;;4977163;28;20065;-74
2022/09/23 10:49:48;;;;;;;12.82;8.50;;;15.40;99.90;;;;;;4973880;28;20050;-74
2022/09/23 10:52:44;;;;;;;11.90;8.93;;;15.50;99.90;;;;;;4928255;28;20049;-75
2022/09/23 10:55:15;;;;;;;12.60;9.52;;;15.50;99.90;;;;;;4980511;28;20108;-74
2022/09/23 10:57:52;;;;;;;;;;;15.50;99.90;;;;;;4978817;28;20138;-75
2022/09/23 11:00:50;;;;;;;10.48;8.63;;;15.60;99.90;;;;;;4981144;28;19922;-73
2022/09/23 11:03:41;;;;;;;12.55;9.30;;;15.60;99.90;;;;;;4977194;28;20046;-77
2022/09/23 11:06:28;;;;;;;12.07;8.45;;;15.60;99.90;;;;;;4986592;28;20149;-76
2022/09/23 11:09:11;;;;;;;9.00;7.95;;;15.70;99.90;;;;;;4983135;28;20047;-74
2022/09/23 11:11:50;;;;;;;;;;;15.70;99.90;;;;;;4980158;28;20077;-75
2022/09/23 11:14:25;;;;;;;9.25;8.27;;;15.70;99.90;;;;;;4985166;28;19964;-76
2022/09/23 11:17:37;;;;;;;11.55;8.27;;;15.70;99.90;;;;;;4986492;28;20046;-75
2022/09/23 11:20:31;;;;;;;11.43;7.90;;;15.70;99.90;;;;;;4945405;28;20173;-75
2022/09/23 11:23:31;;;;;;;9.98;8.45;;;15.70;99.90;;;;;;4986876;28;20423;-75
2022/09/23 11:26:07;;;;;;;13.38;8.70;;;15.80;99.90;;;;;;4984084;28;20676;-75
2022/09/23 11:29:01;;;;;;;11.75;9.40;;;15.80;99.90;;;;;;4979079;28;20050;-75
2022/09/23 11:31:46;;;;;;;10.93;8.55;;;15.80;99.90;;;;;;4988297;28;20101;-73
2022/09/23 11:34:26;;;;;;;13.88;8.23;;;15.90;99.90;;;;;;4993807;28;20066;-74
2022/09/23 11:37:04;;;;;;;13.00;8.80;;;15.90;99.90;;;;;;4981810;28;20406;-74
2022/09/23 11:39:36;;;;;;;12.68;8.77;;;15.90;99.90;;;;;;4971462;28;20051;-75
2022/09/23 11:42:08;;;;;;;11.52;7.95;;;15.90;99.90;;;;;;4967562;28;20046;-75
2022/09/23 11:44:45;;;;;;;9.05;8.05;;;16.00;99.90;;;;;;4986757;28;20081;-75
2022/09/23 11:47:30;;;;;;;9.73;7.80;;;16.00;99.90;;;;;;4981505;28;20141;-75
2022/09/23 11:50:11;;;;;;;11.25;8.70;;;16.00;99.90;;;;;;4980388;28;20053;-75
2022/09/23 11:52:50;;;;;;;11.57;8.82;;;16.00;99.90;;;;;;4987178;28;20042;-76
2022/09/23 11:55:25;;;;;;;10.50;8.65;;;16.00;99.90;;;;;;4969660;28;20046;-75
2022/09/23 11:58:00;;;;;;;13.02;7.97;;;16.10;99.90;;;;;;4983563;28;20062;-75
2022/09/23 12:00:34;;;;;;;11.65;8.55;;;16.00;99.90;;;;;;4989839;28;20502;-75
2022/09/23 12:03:17;;;;;;;10.20;8.38;;;16.00;99.90;;;;;;4980723;28;20104;-76
2022/09/23 12:06:01;;;;;;;;;;;16.10;99.90;;;;;;4991504;28;20137;-75
2022/09/23 12:08:31;;;;;;;9.65;7.90;;;16.10;99.90;;;;;;4978334;28;19965;-73
2022/09/23 12:11:34;;;;;;;10.63;8.02;;;16.10;99.90;;;;;;4979823;28;20042;-73
2022/09/23 12:14:16;;;;;;;11.98;8.55;;;16.10;99.90;;;;;;4984578;28;20055;-74
2022/09/23 12:16:52;;;;;;;10.90;8.15;;;16.10;99.90;;;;;;4978745;28;20105;-75
2022/09/23 12:19:54;;;;;;;13.50;8.20;;;16.20;99.90;;;;;;4988814;28;20057;-74
2022/09/23 12:22:29;;;;;;;14.75;9.10;;;16.20;99.90;;;;;;4982510;28;20133;-74
2022/09/23 12:25:23;;;;;;;9.73;8.40;;;16.30;99.90;;;;;;4970188;28;20046;-74
2022/09/23 12:27:51;;;;;;;9.90;8.35;;;16.30;99.90;;;;;;4980570;28;20054;-74
2022/09/23 12:30:25;;;;;;;12.18;8.82;;;16.30;99.90;;;;;;4985748;28;20042;-74
2022/09/23 12:32:51;;;;;;;12.10;9.50;;;16.30;99.90;;;;;;4979354;28;20046;-74
2022/09/23 12:35:31;;;;;;;10.63;9.25;;;16.30;99.90;;;;;;4979120;28;20599;-74
2022/09/23 12:37:59;;;;;;;11.13;9.50;;;16.30;99.90;;;;;;4967070;28;20053;-74
2022/09/23 12:40:33;;;;;;;10.65;8.32;;;16.30;99.90;;;;;;4990024;28;20066;-74
2022/09/23 12:43:00;;;;;;;14.45;8.43;;;16.30;99.90;;;;;;4979689;28;20058;-74
2022/09/23 12:45:34;;;;;;;12.13;8.80;;;16.30;99.90;;;;;;4981811;28;20053;-74
2022/09/23 12:48:16;;;;;;;9.38;8.43;;;16.30;99.90;;;;;;4969603;28;20488;-74
2022/09/23 12:50:46;;;;;;;15.10;9.15;;;16.30;99.90;;;;;;4982077;28;20062;-74
2022/09/23 12:53:34;;;;;;;10.98;8.52;;;16.30;99.90;;;;;;4982044;28;20069;-73
2022/09/23 12:56:12;;;;;;;10.55;8.98;;;16.30;99.90;;;;;;4986002;28;20129;-74
2022/09/23 12:58:41;;;;;;;11.65;8.63;;;16.30;99.90;;;;;;4980744;28;20042;-74
2022/09/23 13:01:14;;;;;;;10.65;8.48;;;16.30;99.90;;;;;;4986227;28;20053;-74
2022/09/23 13:06:39;;;;;;;12.70;9.07;;;16.30;99.90;;;;;;4973941;28;20054;-73
2022/09/23 13:09:27;;;;;;;13.43;8.93;;;16.30;99.90;;;;;;4992580;28;20125;-78
2022/09/23 13:11:58;;;;;;;10.57;9.20;;;16.30;99.90;;;;;;4987651;28;20105;-75
2022/09/23 13:14:26;;;;;;;12.23;9.23;;;16.30;99.90;;;;;;4981524;28;20047;-74
2022/09/23 13:16:52;;;;;;;12.25;8.73;;;16.30;99.90;;;;;;4990273;28;20050;-74
2022/09/23 13:19:26;;;;;;;9.93;8.68;;;16.40;99.90;;;;;;4983538;28;20113;-76
2022/09/23 13:21:52;;;;;;;10.73;8.90;;;16.40;99.90;;;;;;4982218;28;20093;-75